Time;durP1;ratioP1;P1;durP2;ratioP2;P2;SDS_P1;SDS_P2;PMS_P1;PMS_P2;Temp;Humidity;BMP_temperature;BMP_pressure;BME280_temperature;BME280_humidity;BME280_pressure;Samples;Min_cycle;Max_cycle;Signal;HPM_P1;HPM_P2
2022/04/02 05:40:39;;;;;;;6.97;6.38;;;21.90;68.50;;;;;;6299526;27;80330;-66
2022/04/02 05:43:41;;;;;;;7.57;6.88;;;21.90;68.50;;;;;;6282156;27;82238;-66
2022/04/02 05:46:43;;;;;;;7.20;6.50;;;22.00;68.50;;;;;;6269555;27;82600;-66
2022/04/02 05:49:48;;;;;;;7.55;6.80;;;21.90;68.40;;;;;;6275092;27;82627;-65
2022/04/02 05:52:50;;;;;;;7.65;6.28;;;22.00;68.40;;;;;;6277770;27;82655;-68
2022/04/02 05:55:54;;;;;;;6.40;5.85;;;22.00;68.30;;;;;;6280167;27;81559;-68
2022/04/02 05:58:57;;;;;;;7.00;6.30;;;22.00;68.30;;;;;;6282119;27;81277;-69
2022/04/02 06:01:59;;;;;;;6.65;6.05;;;22.00;68.30;;;;;;6280914;27;82176;-68
2022/04/02 06:05:02;;;;;;;6.88;6.28;;;22.00;68.20;;;;;;6280417;27;82447;-69
2022/04/02 06:08:04;;;;;;;6.47;5.88;;;22.00;68.10;;;;;;6281620;27;82579;-68
2022/04/02 06:11:07;;;;;;;6.78;6.15;;;22.00;68.10;;;;;;6280403;27;82379;-68
2022/04/02 06:14:10;;;;;;;6.50;5.63;;;22.00;68.10;;;;;;6279991;27;81225;-68
2022/04/02 06:17:12;;;;;;;5.97;5.47;;;22.00;68.30;;;;;;6279743;27;83635;-68
2022/04/02 06:20:14;;;;;;;7.38;6.00;;;22.00;68.20;;;;;;6279415;27;82386;-68
2022/04/02 06:23:16;;;;;;;7.22;6.15;;;22.00;68.10;;;;;;6282210;27;81292;-69
2022/04/02 06:26:19;;;;;;;9.13;6.18;;;22.10;68.20;;;;;;6260235;27;81185;-67
2022/04/02 06:29:21;;;;;;;9.43;6.70;;;22.10;70.90;;;;;;6275970;27;82158;-68
2022/04/02 06:32:24;;;;;;;7.40;6.65;;;22.10;71.00;;;;;;6275244;27;82721;-69
2022/04/02 06:35:26;;;;;;;8.82;6.40;;;22.10;70.60;;;;;;6280635;27;82268;-69
2022/04/02 06:38:28;;;;;;;9.63;7.10;;;22.00;68.90;;;;;;6264911;27;82372;-70
2022/04/02 06:41:31;;;;;;;9.10;7.05;;;22.00;65.90;;;;;;6276140;27;82286;-69
2022/04/02 06:44:33;;;;;;;9.60;7.05;;;22.10;64.60;;;;;;6277386;27;82257;-69
2022/04/02 06:47:36;;;;;;;8.30;6.50;;;22.10;63.50;;;;;;6277997;27;81407;-69
2022/04/02 06:50:38;;;;;;;7.43;6.60;;;22.00;64.30;;;;;;6272395;27;82066;-69
2022/04/02 06:53:40;;;;;;;8.88;6.03;;;22.00;65.10;;;;;;6264561;27;81171;-68
2022/04/02 06:56:45;;;;;;;8.55;6.10;;;22.10;65.70;;;;;;6263344;27;82226;-70
2022/04/02 06:59:47;;;;;;;9.57;6.53;;;22.00;65.80;;;;;;6241680;27;82706;-70
2022/04/02 07:02:49;;;;;;;9.05;6.80;;;22.00;66.00;;;;;;6261699;27;82276;-69
2022/04/02 07:05:51;;;;;;;10.45;7.15;;;22.10;66.20;;;;;;6261852;27;82335;-70
2022/04/02 07:08:53;;;;;;;11.10;7.28;;;22.10;66.60;;;;;;6262474;27;82673;-69
2022/04/02 07:11:57;;;;;;;11.02;7.63;;;22.10;66.70;;;;;;6257258;27;82290;-69
2022/04/02 07:14:59;;;;;;;12.07;7.80;;;22.10;66.80;;;;;;6255952;28;82499;-69
2022/04/02 07:18:07;;;;;;;11.10;7.43;;;22.10;67.00;;;;;;6264306;27;82391;-70
2022/04/02 07:21:11;;;;;;;9.88;7.38;;;22.10;66.90;;;;;;6263366;27;82420;-70
2022/04/02 07:24:13;;;;;;;11.43;7.97;;;22.10;66.90;;;;;;6262915;27;81213;-69
2022/04/02 07:27:17;;;;;;;11.23;7.50;;;22.10;66.90;;;;;;6262003;27;82235;-70
2022/04/02 07:30:20;;;;;;;12.80;8.48;;;22.10;67.00;;;;;;6262305;27;82318;-69
2022/04/02 07:33:22;;;;;;;16.17;9.13;;;22.10;67.10;;;;;;6251773;27;82045;-69
2022/04/02 07:36:33;;;;;;;14.00;9.20;;;22.10;67.40;;;;;;6248611;27;82192;-69
2022/04/02 07:39:43;;;;;;;14.98;9.45;;;22.10;67.60;;;;;;6261404;27;81197;-69
2022/04/02 07:43:01;;;;;;;16.92;11.18;;;22.10;67.60;;;;;;6261907;27;82269;-69
2022/04/02 07:46:06;;;;;;;15.88;10.23;;;22.10;67.90;;;;;;6259204;28;82821;-69
2022/04/02 07:49:12;;;;;;;16.35;10.30;;;22.10;67.90;;;;;;6258990;27;84100;-68
2022/04/02 07:52:15;;;;;;;15.73;10.18;;;22.20;68.00;;;;;;6259572;27;82695;-68
2022/04/02 07:55:19;;;;;;;19.08;10.73;;;22.20;67.90;;;;;;6262420;27;82707;-69
2022/04/02 07:58:28;;;;;;;16.17;10.73;;;22.20;67.90;;;;;;6260704;27;83372;-69
2022/04/02 08:01:30;;;;;;;15.60;10.30;;;22.20;67.80;;;;;;6257858;27;82707;-69
2022/04/02 08:04:32;;;;;;;15.57;10.32;;;22.30;67.80;;;;;;6261998;27;82834;-69
2022/04/02 08:07:36;;;;;;;15.20;10.75;;;22.20;67.60;;;;;;6260759;27;82665;-69
2022/04/02 08:10:39;;;;;;;14.48;10.85;;;22.20;67.60;;;;;;6260293;27;82704;-69
2022/04/02 08:13:44;;;;;;;15.75;11.00;;;22.20;67.50;;;;;;6261437;27;82965;-69
2022/04/02 08:16:46;;;;;;;16.23;10.85;;;22.20;67.60;;;;;;6260085;27;82748;-69
2022/04/02 08:19:51;;;;;;;14.80;10.85;;;22.20;67.40;;;;;;6260458;27;83916;-70
2022/04/02 08:22:55;;;;;;;15.98;10.90;;;22.30;67.40;;;;;;6249562;27;82703;-68
2022/04/02 08:26:07;;;;;;;14.60;11.05;;;22.30;67.40;;;;;;6260511;27;82828;-70
2022/04/02 08:29:25;;;;;;;14.70;10.43;;;22.30;67.40;;;;;;6259603;27;82680;-69
2022/04/02 08:32:55;;;;;;;14.23;10.95;;;22.30;67.30;;;;;;6260750;27;82791;-69
2022/04/02 08:36:07;;;;;;;15.38;10.95;;;22.30;67.30;;;;;;6259306;27;82925;-70
2022/04/02 08:39:16;;;;;;;15.52;11.45;;;22.30;67.30;;;;;;6260755;27;83981;-69
2022/04/02 08:43:02;;;;;;;14.52;10.80;;;22.30;67.30;;;;;;6258755;27;84007;-70
2022/04/02 08:46:16;;;;;;;13.15;10.65;;;22.30;67.30;;;;;;6259877;27;83232;-69
2022/04/02 08:49:24;;;;;;;14.15;11.27;;;22.30;67.20;;;;;;6258387;27;82729;-69
2022/04/02 08:52:51;;;;;;;14.30;10.50;;;22.30;67.20;;;;;;6258580;27;83917;-70
2022/04/02 08:56:02;;;;;;;13.85;10.57;;;22.40;67.40;;;;;;6259551;27;82701;-70
2022/04/02 08:59:05;;;;;;;15.02;11.23;;;22.30;67.70;;;;;;6258645;27;83309;-70
2022/04/02 09:02:52;;;;;;;13.82;10.90;;;22.40;67.40;;;;;;6260345;27;82802;-70
2022/04/02 09:06:12;;;;;;;13.80;10.93;;;22.40;67.40;;;;;;6256346;27;82783;-70
2022/04/02 09:09:27;;;;;;;15.18;10.75;;;22.40;67.30;;;;;;6259410;27;83899;-70
2022/04/02 09:13:03;;;;;;;14.02;10.63;;;22.40;67.40;;;;;;6258017;27;83277;-70
2022/04/02 09:16:06;;;;;;;13.38;10.32;;;22.40;67.40;;;;;;6257500;27;82733;-70
2022/04/02 09:19:43;;;;;;;13.68;10.57;;;22.30;67.30;;;;;;6246770;28;82684;-69
2022/04/02 09:23:02;;;;;;;13.88;10.73;;;22.40;67.40;;;;;;6259802;27;82691;-69
2022/04/02 09:26:32;;;;;;;12.45;10.35;;;22.30;67.30;;;;;;6258440;27;82768;-69
2022/04/02 09:29:43;;;;;;;12.23;10.15;;;22.30;67.40;;;;;;6259928;27;82630;-69
2022/04/02 09:33:08;;;;;;;11.00;9.80;;;22.40;67.40;;;;;;6259945;27;82746;-70
2022/04/02 09:36:34;;;;;;;13.20;11.00;;;22.40;67.40;;;;;;6259949;27;82327;-69
2022/04/02 09:39:53;;;;;;;13.05;10.43;;;22.40;67.30;;;;;;6246046;27;82833;-70
2022/04/02 09:43:06;;;;;;;13.90;11.00;;;22.40;67.30;;;;;;6258960;28;82758;-69
2022/04/02 09:46:24;;;;;;;12.85;10.25;;;22.40;67.30;;;;;;6257744;27;82761;-69
2022/04/02 09:49:34;;;;;;;11.88;10.13;;;22.40;67.20;;;;;;6260553;27;83312;-70
2022/04/02 09:52:42;;;;;;;10.95;9.63;;;22.40;67.20;;;;;;6258343;27;82765;-70
2022/04/02 09:55:51;;;;;;;11.88;9.73;;;22.40;67.20;;;;;;6259709;27;82534;-69
2022/04/02 09:59:14;;;;;;;11.85;10.13;;;22.30;67.20;;;;;;6259654;27;82033;-69
2022/04/02 10:02:28;;;;;;;11.75;9.73;;;22.30;67.20;;;;;;6257955;27;82685;-69
2022/04/02 10:05:45;;;;;;;13.32;9.90;;;22.30;67.20;;;;;;6259616;27;82312;-70
2022/04/02 10:09:13;;;;;;;12.13;9.88;;;22.30;67.20;;;;;;6260980;27;82168;-70
2022/04/02 10:12:17;;;;;;;10.88;9.32;;;22.30;67.20;;;;;;6259743;27;82242;-69
2022/04/02 10:15:22;;;;;;;10.27;9.13;;;22.30;67.20;;;;;;6248966;28;82310;-69
2022/04/02 10:18:27;;;;;;;11.00;9.45;;;22.30;67.20;;;;;;6258998;27;82358;-69
2022/04/02 10:21:30;;;;;;;11.05;9.85;;;22.30;67.20;;;;;;6259829;27;81847;-69
2022/04/02 10:24:37;;;;;;;12.38;9.45;;;22.30;67.20;;;;;;6259070;27;81009;-69
2022/04/02 10:27:41;;;;;;;9.98;8.85;;;22.30;67.20;;;;;;6263222;27;82272;-69
2022/04/02 10:30:45;;;;;;;10.80;9.55;;;22.30;67.20;;;;;;6265180;27;82398;-70
2022/04/02 10:33:53;;;;;;;12.65;10.02;;;22.30;67.20;;;;;;6265804;27;82406;-70
2022/04/02 10:37:05;;;;;;;11.73;9.93;;;22.40;67.30;;;;;;6261721;27;82807;-69
2022/04/02 10:40:12;;;;;;;12.07;10.30;;;22.30;67.20;;;;;;6262967;27;82903;-69
2022/04/02 10:43:27;;;;;;;13.20;10.70;;;22.30;67.20;;;;;;6261562;27;82818;-69
2022/04/02 10:46:32;;;;;;;13.55;10.82;;;22.40;67.20;;;;;;6249390;27;83148;-69
2022/04/02 10:49:39;;;;;;;12.85;11.07;;;22.30;67.20;;;;;;6262197;27;82926;-70
2022/04/02 10:52:44;;;;;;;12.40;10.88;;;22.40;67.20;;;;;;6262262;27;83587;-70
2022/04/02 10:55:58;;;;;;;14.65;11.50;;;22.30;67.20;;;;;;6259917;27;84209;-70
2022/04/02 10:59:00;;;;;;;13.50;11.70;;;22.30;67.10;;;;;;6260364;27;83232;-69
2022/04/02 11:02:03;;;;;;;13.35;11.82;;;22.30;67.10;;;;;;6261759;27;83904;-69
2022/04/02 11:05:06;;;;;;;13.93;12.40;;;22.40;67.20;;;;;;6261439;27;84125;-70
2022/04/02 11:08:13;;;;;;;14.63;12.40;;;22.40;67.10;;;;;;6260368;27;85102;-70
2022/04/02 11:11:23;;;;;;;16.38;12.52;;;22.30;67.20;;;;;;6259440;27;84818;-70
2022/04/02 11:14:26;;;;;;;16.00;12.88;;;22.40;67.20;;;;;;6259396;27;83943;-69
2022/04/02 11:17:29;;;;;;;14.27;12.60;;;22.40;67.10;;;;;;6247193;27;83991;-69
2022/04/02 11:20:34;;;;;;;15.90;12.70;;;22.40;67.20;;;;;;6250784;28;83862;-70
2022/04/02 11:23:46;;;;;;;15.77;12.98;;;22.30;67.10;;;;;;6261463;27;84388;-70
2022/04/02 11:26:50;;;;;;;15.95;13.38;;;22.30;67.10;;;;;;6259359;27;84349;-70
2022/04/02 11:29:52;;;;;;;15.80;13.13;;;22.40;67.10;;;;;;6262168;27;83465;-70
2022/04/02 11:33:04;;;;;;;17.95;13.93;;;22.40;67.10;;;;;;6262500;27;82788;-70
2022/04/02 11:36:14;;;;;;;17.50;13.77;;;22.40;67.20;;;;;;6261443;27;83937;-69
2022/04/02 11:39:23;;;;;;;17.40;13.10;;;22.40;67.10;;;;;;6261721;27;85349;-70
2022/04/02 11:42:27;;;;;;;16.38;13.40;;;22.40;67.20;;;;;;6258999;27;83913;-70
2022/04/02 11:45:30;;;;;;;15.15;12.85;;;22.30;67.10;;;;;;6260777;27;84214;-70
2022/04/02 11:48:34;;;;;;;15.90;14.10;;;22.30;67.00;;;;;;6259769;27;84009;-70
2022/04/02 11:51:36;;;;;;;17.33;14.27;;;22.30;67.00;;;;;;6262433;27;83182;-70
2022/04/02 11:54:41;;;;;;;16.58;13.52;;;22.40;67.10;;;;;;6262334;27;84086;-70
2022/04/02 11:57:59;;;;;;;16.58;13.40;;;22.40;67.10;;;;;;6247051;27;83893;-70
2022/04/02 12:01:01;;;;;;;16.48;14.05;;;22.40;67.00;;;;;;6248700;27;83614;-69
2022/04/02 12:04:09;;;;;;;15.90;13.48;;;22.30;66.90;;;;;;6259511;27;83993;-70
2022/04/02 12:07:18;;;;;;;17.50;14.43;;;22.40;67.00;;;;;;6245870;27;84369;-70
2022/04/02 12:10:25;;;;;;;16.90;14.25;;;22.40;67.00;;;;;;6247613;27;84980;-70
2022/04/02 12:13:28;;;;;;;16.90;13.85;;;22.40;67.10;;;;;;6256860;28;83999;-70
2022/04/02 12:16:31;;;;;;;15.88;13.60;;;22.30;67.00;;;;;;6251778;27;84007;-69
2022/04/02 12:19:42;;;;;;;15.80;13.75;;;22.40;67.10;;;;;;6255957;27;84243;-70
2022/04/02 12:22:46;;;;;;;15.40;13.63;;;22.40;67.10;;;;;;6260695;27;85719;-70
2022/04/02 12:25:56;;;;;;;16.35;13.95;;;22.40;67.10;;;;;;6257993;27;84277;-70
2022/04/02 12:29:01;;;;;;;17.38;13.63;;;22.40;67.10;;;;;;6259536;27;82979;-69
2022/04/02 12:32:04;;;;;;;16.58;13.77;;;22.40;67.10;;;;;;6260036;27;83382;-70
2022/04/02 12:35:08;;;;;;;16.50;13.45;;;22.40;67.10;;;;;;6259215;27;83930;-69
2022/04/02 12:38:23;;;;;;;15.38;13.48;;;22.40;67.10;;;;;;6259003;27;84067;-70
2022/04/02 12:41:28;;;;;;;15.93;13.32;;;22.40;67.10;;;;;;6258994;27;85009;-69
2022/04/02 12:44:31;;;;;;;16.95;12.90;;;22.30;67.00;;;;;;6260940;27;84343;-69
2022/04/02 12:47:34;;;;;;;18.38;13.88;;;22.40;67.00;;;;;;6256799;27;83979;-70
2022/04/02 12:50:38;;;;;;;15.30;12.95;;;22.40;67.10;;;;;;6259774;27;83991;-70
2022/04/02 12:53:43;;;;;;;15.48;13.25;;;22.40;67.00;;;;;;6258378;27;84290;-70
2022/04/02 12:56:44;;;;;;;16.30;13.07;;;22.30;66.90;;;;;;6258743;27;83280;-69
2022/04/02 12:59:54;;;;;;;14.23;12.07;;;22.30;67.00;;;;;;6261056;27;84403;-70
2022/04/02 13:02:58;;;;;;;15.35;12.75;;;22.40;67.10;;;;;;6258000;27;84387;-70
2022/04/02 13:06:03;;;;;;;16.20;13.40;;;22.30;67.00;;;;;;6260035;27;84044;-70
2022/04/02 13:09:07;;;;;;;15.32;12.80;;;22.30;67.00;;;;;;6260250;27;84141;-70
2022/04/02 13:12:10;;;;;;;14.77;12.70;;;22.30;67.00;;;;;;6245820;27;84776;-69
2022/04/02 13:15:14;;;;;;;14.27;12.77;;;22.40;67.00;;;;;;6250474;27;84053;-69
2022/04/02 13:21:41;;;;;;;14.68;12.60;;;22.40;67.00;;;;;;6258571;27;83356;-70
2022/04/02 13:24:54;;;;;;;14.63;12.52;;;22.40;66.90;;;;;;6258491;28;84032;-70
2022/04/02 13:28:35;;;;;;;14.05;11.82;;;22.30;66.90;;;;;;6259307;27;83245;-69
2022/04/02 13:31:53;;;;;;;13.52;11.82;;;22.40;67.00;;;;;;6235588;27;84042;-70
2022/04/02 13:35:07;;;;;;;14.55;12.13;;;22.40;66.90;;;;;;6258574;27;83464;-70
2022/04/02 13:38:31;;;;;;;14.43;12.48;;;22.40;67.80;;;;;;6256831;27;84045;-70
2022/04/02 13:41:35;;;;;;;13.88;11.35;;;22.40;66.90;;;;;;6257463;27;83078;-69
2022/04/02 13:44:44;;;;;;;14.93;12.20;;;22.40;66.90;;;;;;6253162;27;85004;-69
2022/04/02 13:47:59;;;;;;;13.02;11.63;;;22.40;66.90;;;;;;6256818;27;84034;-69
2022/04/02 13:51:04;;;;;;;12.65;11.32;;;22.40;66.90;;;;;;6257749;27;83997;-70
2022/04/02 13:54:07;;;;;;;13.65;11.95;;;22.40;66.90;;;;;;6258282;27;84151;-70
2022/04/02 13:57:12;;;;;;;13.02;11.43;;;22.40;66.90;;;;;;6257418;27;84069;-69
2022/04/02 14:00:15;;;;;;;13.18;11.48;;;22.40;66.90;;;;;;6252841;27;84108;-69
2022/04/02 14:03:23;;;;;;;13.15;11.75;;;22.40;66.90;;;;;;6256045;27;84109;-69
2022/04/02 14:06:26;;;;;;;12.82;11.48;;;22.40;66.90;;;;;;6261606;27;82705;-70
2022/04/02 14:09:30;;;;;;;13.52;11.60;;;22.40;66.90;;;;;;6259810;27;84224;-69
2022/04/02 14:12:38;;;;;;;12.10;10.70;;;22.40;66.90;;;;;;6236810;27;84197;-70
2022/04/02 14:15:49;;;;;;;13.23;11.63;;;22.30;66.80;;;;;;6250416;27;84846;-69
2022/04/02 14:18:54;;;;;;;12.85;11.23;;;22.40;66.90;;;;;;6261707;27;82784;-70
2022/04/02 14:21:58;;;;;;;13.35;11.43;;;22.40;67.90;;;;;;6261521;27;84282;-70
2022/04/02 14:25:08;;;;;;;13.27;11.20;;;22.30;66.90;;;;;;6262324;27;84002;-70
2022/04/02 14:28:30;;;;;;;12.70;11.27;;;22.30;67.00;;;;;;6248048;27;84037;-70
2022/04/02 14:32:13;;;;;;;12.48;10.48;;;22.30;66.90;;;;;;6250640;28;83380;-70
2022/04/02 14:35:45;;;;;;;13.35;11.15;;;22.40;67.00;;;;;;6261018;27;83301;-70
2022/04/02 14:39:25;;;;;;;11.30;10.10;;;22.40;67.00;;;;;;6260738;27;83652;-69
2022/04/02 14:43:09;;;;;;;12.48;10.77;;;22.40;66.90;;;;;;6260802;27;84022;-70
2022/04/02 14:46:42;;;;;;;11.55;10.35;;;22.30;66.90;;;;;;6262515;27;84454;-70
2022/04/02 14:50:19;;;;;;;12.55;10.48;;;22.40;66.90;;;;;;6261284;27;84053;-70
2022/04/02 14:53:55;;;;;;;11.43;10.18;;;22.40;66.90;;;;;;6251250;27;84161;-70
2022/04/02 14:57:35;;;;;;;12.45;11.02;;;22.30;66.90;;;;;;6261897;27;84698;-70
2022/04/02 15:01:22;;;;;;;14.05;11.10;;;22.30;66.90;;;;;;6257438;27;84031;-69
2022/04/02 15:04:56;;;;;;;11.45;10.25;;;22.30;66.90;;;;;;6250374;28;84038;-70
2022/04/02 15:08:38;;;;;;;11.77;10.25;;;22.30;66.90;;;;;;6261413;27;83110;-70
2022/04/02 15:11:54;;;;;;;11.40;10.05;;;22.20;67.80;;;;;;6249236;27;84125;-70
2022/04/02 15:14:58;;;;;;;11.55;10.23;;;22.20;67.00;;;;;;6248450;27;83380;-69
2022/04/02 15:18:01;;;;;;;10.45;9.35;;;22.20;67.10;;;;;;6261647;28;82921;-70
2022/04/02 15:21:12;;;;;;;11.93;9.75;;;22.20;67.10;;;;;;6263020;27;84018;-70
2022/04/02 15:24:17;;;;;;;11.63;10.07;;;22.10;67.30;;;;;;6261464;27;85288;-69
2022/04/02 15:27:47;;;;;;;10.52;9.20;;;22.20;67.40;;;;;;6260965;27;84045;-70
2022/04/02 15:30:51;;;;;;;11.45;9.82;;;22.10;67.40;;;;;;6261014;27;84133;-70
2022/04/02 15:33:55;;;;;;;10.63;9.52;;;22.10;67.40;;;;;;6263303;27;83985;-70
2022/04/02 15:37:02;;;;;;;10.15;9.15;;;22.10;67.30;;;;;;6261333;27;83990;-69
2022/04/02 15:40:10;;;;;;;11.35;9.45;;;22.10;67.20;;;;;;6260050;27;84111;-70
2022/04/02 15:43:21;;;;;;;10.13;8.65;;;22.10;67.20;;;;;;6262498;27;84160;-69
2022/04/02 15:46:35;;;;;;;10.13;9.13;;;22.10;67.30;;;;;;6261389;27;83503;-69
2022/04/02 15:49:37;;;;;;;10.35;8.73;;;22.10;67.20;;;;;;6262738;27;82929;-69
2022/04/02 15:52:40;;;;;;;9.32;8.30;;;22.10;67.00;;;;;;6260925;27;82815;-69
2022/04/02 15:55:44;;;;;;;11.30;8.55;;;22.10;67.00;;;;;;6261767;27;84903;-70
2022/04/02 15:59:10;;;;;;;9.85;8.85;;;22.10;66.90;;;;;;6261939;27;84003;-70
2022/04/02 16:02:43;;;;;;;9.45;8.43;;;22.10;66.90;;;;;;6251677;27;83221;-69
2022/04/02 16:05:45;;;;;;;8.82;7.68;;;22.10;66.90;;;;;;6247936;27;83922;-69
2022/04/02 16:09:28;;;;;;;9.45;8.45;;;22.10;67.00;;;;;;6261904;27;82883;-70
2022/04/02 16:12:38;;;;;;;9.52;8.50;;;22.10;67.00;;;;;;6258734;28;84078;-69
2022/04/02 16:15:42;;;;;;;10.52;9.00;;;22.10;66.90;;;;;;6259904;27;83991;-70
2022/04/02 16:18:44;;;;;;;9.20;7.97;;;22.10;66.90;;;;;;6261998;27;83598;-70
2022/04/02 16:21:46;;;;;;;8.80;7.90;;;22.10;66.90;;;;;;6260600;27;84053;-70
2022/04/02 16:24:54;;;;;;;8.95;8.05;;;22.10;66.80;;;;;;6261512;27;84575;-70
2022/04/02 16:27:56;;;;;;;8.15;7.35;;;22.10;66.80;;;;;;6260920;27;85161;-69
2022/04/02 16:31:02;;;;;;;8.85;7.88;;;22.10;66.80;;;;;;6259490;27;84151;-69
2022/04/02 16:34:04;;;;;;;8.63;7.82;;;22.10;66.70;;;;;;6260642;27;83228;-69
2022/04/02 16:37:08;;;;;;;8.38;7.13;;;22.10;66.70;;;;;;6259348;27;84037;-70
2022/04/02 16:40:13;;;;;;;8.52;7.63;;;22.10;66.70;;;;;;6261051;27;84039;-70
2022/04/02 16:43:16;;;;;;;8.15;7.35;;;22.10;66.70;;;;;;6262111;28;84217;-69
2022/04/02 16:46:19;;;;;;;7.45;6.75;;;22.10;66.60;;;;;;6260254;27;84105;-69
2022/04/02 16:49:22;;;;;;;8.00;7.20;;;22.20;66.70;;;;;;6262771;27;83516;-69
2022/04/02 16:52:28;;;;;;;8.00;7.20;;;22.20;66.70;;;;;;6260326;28;84134;-70
2022/04/02 16:55:30;;;;;;;8.38;7.20;;;22.10;66.60;;;;;;6261142;28;83963;-69
2022/04/02 16:58:32;;;;;;;7.60;6.82;;;22.10;66.60;;;;;;6260044;27;84850;-70
2022/04/02 17:01:40;;;;;;;7.20;6.60;;;22.20;66.60;;;;;;6259469;27;84060;-69
2022/04/02 17:04:54;;;;;;;8.13;7.03;;;22.20;66.60;;;;;;6259196;28;83102;-70
2022/04/02 17:07:59;;;;;;;8.43;7.13;;;22.20;66.50;;;;;;6260071;27;82595;-69
2022/04/02 17:11:01;;;;;;;7.22;6.53;;;22.20;66.50;;;;;;6260712;27;84053;-69
2022/04/02 17:14:03;;;;;;;7.30;6.50;;;22.20;66.50;;;;;;6259491;27;83929;-70
2022/04/02 17:17:08;;;;;;;7.15;6.43;;;22.20;66.50;;;;;;6248290;27;84313;-69
2022/04/02 17:20:10;;;;;;;7.88;6.78;;;22.20;66.50;;;;;;6236259;28;82473;-70
2022/04/02 17:23:31;;;;;;;6.90;6.15;;;22.20;66.40;;;;;;6258203;27;84016;-69
2022/04/02 17:26:33;;;;;;;6.95;6.25;;;22.20;66.40;;;;;;6258919;27;84043;-70
2022/04/02 17:29:36;;;;;;;6.95;6.25;;;22.20;66.40;;;;;;6258080;27;83854;-70
2022/04/02 17:32:43;;;;;;;7.47;6.68;;;22.20;66.40;;;;;;6251510;27;83987;-70
2022/04/02 17:35:52;;;;;;;7.30;6.60;;;22.20;66.40;;;;;;6255647;27;84160;-70
2022/04/02 17:39:01;;;;;;;7.10;6.40;;;22.20;66.40;;;;;;6258947;27;84073;-70
2022/04/02 17:42:07;;;;;;;8.05;7.10;;;22.20;66.40;;;;;;6244176;27;84305;-69
2022/04/02 17:45:18;;;;;;;7.60;6.82;;;22.20;66.40;;;;;;6258371;27;83952;-69
2022/04/02 17:48:24;;;;;;;6.78;6.18;;;22.20;66.40;;;;;;6258132;27;84014;-70
2022/04/02 17:51:30;;;;;;;7.13;6.47;;;22.20;66.40;;;;;;6259472;27;82257;-70
2022/04/02 17:54:44;;;;;;;7.80;7.00;;;22.30;66.40;;;;;;6258217;28;83947;-70
2022/04/02 17:58:07;;;;;;;7.63;6.93;;;22.20;66.30;;;;;;6245796;28;84069;-70
2022/04/02 18:01:12;;;;;;;7.55;6.85;;;22.20;66.30;;;;;;6233847;27;85001;-70
2022/04/02 18:04:16;;;;;;;7.95;7.15;;;22.20;66.30;;;;;;6258768;27;84139;-70
2022/04/02 18:07:22;;;;;;;8.20;7.40;;;22.20;66.30;;;;;;6247542;27;84406;-70
2022/04/02 18:10:24;;;;;;;7.80;7.10;;;22.30;66.40;;;;;;6259960;27;82775;-70
2022/04/02 18:13:36;;;;;;;8.48;7.68;;;22.20;66.20;;;;;;6259147;27;83095;-70
2022/04/02 18:16:39;;;;;;;8.43;7.63;;;22.20;66.30;;;;;;6258643;27;83256;-69
2022/04/02 18:19:42;;;;;;;8.38;7.68;;;22.20;66.20;;;;;;6257129;28;82930;-70
2022/04/02 18:22:44;;;;;;;8.68;7.80;;;22.20;66.20;;;;;;6259783;27;83622;-69
2022/04/02 18:25:47;;;;;;;8.52;7.72;;;22.30;66.20;;;;;;6257432;27;82953;-70
2022/04/02 18:28:49;;;;;;;8.32;7.53;;;22.20;66.20;;;;;;6259728;27;84118;-70
2022/04/02 18:31:51;;;;;;;8.50;7.70;;;22.30;66.20;;;;;;6258679;27;84949;-70
2022/04/02 18:34:55;;;;;;;8.43;7.63;;;22.30;66.20;;;;;;6259147;27;84102;-70
2022/04/02 18:37:57;;;;;;;8.55;7.75;;;22.20;66.20;;;;;;6257067;27;84663;-70
2022/04/02 18:40:59;;;;;;;9.13;8.23;;;22.20;66.20;;;;;;6257466;27;84244;-70
2022/04/02 18:44:01;;;;;;;8.98;8.18;;;22.30;66.20;;;;;;6253075;27;84368;-70
2022/04/02 18:47:04;;;;;;;8.93;8.13;;;22.30;66.20;;;;;;6247152;27;84217;-70
2022/04/02 18:50:08;;;;;;;9.20;8.30;;;22.30;66.20;;;;;;6263294;27;84017;-70
2022/04/02 18:53:11;;;;;;;8.90;8.10;;;22.20;66.20;;;;;;6249727;27;83387;-70
2022/04/02 18:56:13;;;;;;;9.20;8.40;;;22.20;66.20;;;;;;6263314;27;84015;-70
2022/04/02 18:59:15;;;;;;;9.15;8.25;;;22.20;66.20;;;;;;6249224;27;83985;-70
2022/04/02 19:02:17;;;;;;;8.70;7.90;;;22.20;66.20;;;;;;6261847;27;84960;-69
2022/04/02 19:05:21;;;;;;;9.18;8.38;;;22.30;66.20;;;;;;6261214;27;84053;-70
2022/04/02 19:08:42;;;;;;;9.05;8.25;;;22.20;66.20;;;;;;6263111;27;84023;-70
2022/04/02 19:12:02;;;;;;;9.18;8.27;;;22.20;66.20;;;;;;6261468;27;84055;-70
2022/04/02 19:15:07;;;;;;;9.48;8.57;;;22.20;66.20;;;;;;6262761;27;84313;-70
2022/04/02 19:18:09;;;;;;;8.77;8.02;;;22.20;66.20;;;;;;6263734;27;84277;-70
2022/04/02 19:21:12;;;;;;;9.70;8.80;;;22.30;66.10;;;;;;6250335;27;84041;-70
2022/04/02 19:24:14;;;;;;;9.63;8.73;;;22.30;66.10;;;;;;6248967;27;83307;-70
2022/04/02 19:27:16;;;;;;;8.63;7.82;;;22.20;66.10;;;;;;6263994;27;84106;-70
2022/04/02 19:30:19;;;;;;;9.57;8.68;;;22.30;66.10;;;;;;6261996;27;84019;-70
2022/04/02 19:33:20;;;;;;;9.07;8.27;;;22.30;66.10;;;;;;6249245;27;83909;-70
2022/04/02 19:36:24;;;;;;;9.27;8.40;;;22.30;66.10;;;;;;6261749;27;84031;-70
2022/04/02 19:39:26;;;;;;;9.30;8.50;;;22.30;66.00;;;;;;6262633;27;84011;-70
2022/04/02 19:42:28;;;;;;;8.98;8.18;;;22.30;66.00;;;;;;6261731;27;84058;-70
2022/04/02 19:45:31;;;;;;;9.15;8.35;;;22.30;66.00;;;;;;6261029;27;83924;-69
2022/04/02 19:48:33;;;;;;;9.13;8.32;;;22.30;66.00;;;;;;6260569;27;84390;-70
2022/04/02 19:51:37;;;;;;;9.48;8.57;;;22.30;66.00;;;;;;6261904;27;84078;-70
2022/04/02 19:54:40;;;;;;;9.38;8.52;;;22.30;66.10;;;;;;6262876;27;83243;-70
2022/04/02 19:57:42;;;;;;;9.50;8.60;;;22.30;66.00;;;;;;6248149;27;82889;-70
2022/04/02 20:00:44;;;;;;;9.27;8.48;;;22.30;66.10;;;;;;6259421;27;83993;-71
2022/04/02 20:03:46;;;;;;;9.38;8.50;;;22.30;66.00;;;;;;6262249;27;85306;-70
2022/04/02 20:06:50;;;;;;;8.73;7.93;;;22.30;66.00;;;;;;6261550;27;84297;-70
2022/04/02 20:09:52;;;;;;;9.80;8.90;;;22.30;66.00;;;;;;6260167;27;84004;-70
2022/04/02 20:12:54;;;;;;;9.25;8.45;;;22.30;66.00;;;;;;6261685;27;84115;-70
2022/04/02 20:15:56;;;;;;;9.77;8.75;;;22.20;65.90;;;;;;6261176;27;83970;-70
2022/04/02 20:18:58;;;;;;;9.45;8.65;;;22.30;66.00;;;;;;6260337;27;84014;-70
2022/04/02 20:22:01;;;;;;;9.75;8.85;;;22.30;66.00;;;;;;6248088;27;83914;-70
2022/04/02 20:25:04;;;;;;;9.77;8.88;;;22.30;66.00;;;;;;6262185;27;83353;-70
2022/04/02 20:28:07;;;;;;;9.82;8.93;;;22.30;66.00;;;;;;6261731;27;84249;-70
2022/04/02 20:31:08;;;;;;;10.23;9.32;;;22.20;65.90;;;;;;6259680;27;84121;-70
2022/04/02 20:34:10;;;;;;;10.02;9.13;;;22.20;66.00;;;;;;6261731;27;85463;-69
2022/04/02 20:37:14;;;;;;;10.82;9.82;;;22.20;66.10;;;;;;6259710;27;82938;-70
2022/04/02 20:40:16;;;;;;;10.35;9.35;;;22.20;66.10;;;;;;6260809;27;86276;-70
2022/04/02 20:43:19;;;;;;;11.00;10.00;;;22.20;66.30;;;;;;6260197;27;84115;-70
2022/04/02 20:46:22;;;;;;;11.40;10.40;;;22.20;66.40;;;;;;6258191;27;84177;-71
2022/04/02 20:49:24;;;;;;;11.38;10.38;;;22.20;66.40;;;;;;6258894;27;84136;-70
2022/04/02 20:52:28;;;;;;;11.40;10.30;;;22.10;66.40;;;;;;6258050;27;84331;-71
2022/04/02 20:55:30;;;;;;;11.10;10.10;;;22.10;66.40;;;;;;6259311;27;83605;-70
2022/04/02 20:58:32;;;;;;;11.70;10.60;;;22.10;66.60;;;;;;6260065;27;83170;-70
2022/04/02 21:01:34;;;;;;;12.10;11.00;;;22.10;66.40;;;;;;6257585;27;84053;-70
2022/04/02 21:04:36;;;;;;;12.30;11.15;;;22.10;66.60;;;;;;6259822;27;85258;-71
2022/04/02 21:07:39;;;;;;;11.95;10.85;;;22.10;66.60;;;;;;6259699;27;84008;-70
2022/04/02 21:10:43;;;;;;;12.48;11.38;;;22.00;66.50;;;;;;6258840;27;84283;-70
2022/04/02 21:13:45;;;;;;;12.18;11.05;;;22.00;66.60;;;;;;6245931;27;83988;-70
2022/04/02 21:16:47;;;;;;;12.85;11.65;;;22.00;66.60;;;;;;6257309;27;84084;-69
2022/04/02 21:19:49;;;;;;;12.98;11.70;;;22.00;66.70;;;;;;6258052;27;84348;-72
2022/04/02 21:22:52;;;;;;;13.55;12.30;;;22.00;66.70;;;;;;6259425;27;83990;-71
2022/04/02 21:25:56;;;;;;;13.60;12.30;;;22.00;66.70;;;;;;6259278;27;83282;-70
2022/04/02 21:29:00;;;;;;;12.23;11.13;;;22.00;66.70;;;;;;6257661;28;84592;-70
2022/04/02 21:32:02;;;;;;;13.32;11.95;;;22.00;66.70;;;;;;6246123;27;84025;-70
2022/04/02 21:35:05;;;;;;;13.32;12.07;;;22.00;66.70;;;;;;6243839;27;84905;-70
2022/04/02 21:38:10;;;;;;;12.68;11.50;;;21.90;66.70;;;;;;6257272;27;82901;-69
2022/04/02 21:41:12;;;;;;;13.43;12.23;;;21.90;66.70;;;;;;6258819;28;82843;-69
2022/04/02 21:44:14;;;;;;;12.50;11.40;;;21.90;66.70;;;;;;6257374;27;84135;-70
2022/04/02 21:47:16;;;;;;;12.95;11.75;;;21.90;66.70;;;;;;6257032;27;84028;-70